Time;durP1;ratioP1;P1;durP2;ratioP2;P2;SDS_P1;SDS_P2;PMS_P1;PMS_P2;Temp;Humidity;BMP_temperature;BMP_pressure;BME280_temperature;BME280_humidity;BME280_pressure;Samples;Min_cycle;Max_cycle;Signal;HPM_P1;HPM_P2
2021/09/02 00:00:58;;;;;;;32.57;15.70;;;;;;;13.09;100.00;102340.81;7402453;19;20402;-56
2021/09/02 00:03:28;;;;;;;31.90;14.63;;;;;;;13.08;100.00;102339.03;7397788;19;20434;-57
2021/09/02 00:05:58;;;;;;;36.53;16.43;;;;;;;13.10;100.00;102337.44;7403360;19;20526;-57
2021/09/02 00:08:27;;;;;;;31.30;14.83;;;;;;;13.04;100.00;102336.19;7400225;19;20670;-56
2021/09/02 00:10:57;;;;;;;28.10;15.47;;;;;;;12.99;100.00;102343.72;7407650;19;20396;-57
2021/09/02 00:13:29;;;;;;;37.60;16.10;;;;;;;13.06;100.00;102337.16;7397405;19;20921;-57
2021/09/02 00:15:58;;;;;;;36.80;15.67;;;;;;;13.11;100.00;102346.09;7402076;19;20384;-56
2021/09/02 00:18:28;;;;;;;32.00;14.80;;;;;;;13.17;100.00;102338.66;7398259;19;20407;-55
2021/09/02 00:20:57;;;;;;;36.40;15.53;;;;;;;13.18;100.00;102343.03;7403282;19;20668;-56
2021/09/02 00:23:27;;;;;;;33.87;15.47;;;;;;;13.20;100.00;102333.69;7396798;19;20491;-56
2021/09/02 00:25:56;;;;;;;32.57;15.90;;;;;;;13.09;100.00;102327.84;7402750;19;20387;-57
2021/09/02 00:28:30;;;;;;;37.93;17.43;;;;;;;13.04;100.00;102329.31;7399251;19;20900;-57
2021/09/02 00:30:59;;;;;;;32.33;15.60;;;;;;;13.06;100.00;102332.88;7403062;19;20658;-57
2021/09/02 00:33:29;;;;;;;33.17;14.43;;;;;;;13.10;100.00;102328.78;7395518;19;20514;-57
2021/09/02 00:35:58;;;;;;;35.00;15.60;;;;;;;13.15;100.00;102334.19;7402260;19;20680;-58
2021/09/02 00:38:28;;;;;;;33.73;14.17;;;;;;;13.18;100.00;102331.81;7399113;19;20737;-53
2021/09/02 00:40:57;;;;;;;27.77;14.20;;;;;;;13.11;100.00;102333.13;7402726;19;20730;-59
2021/09/02 00:43:31;;;;;;;32.37;14.30;;;;;;;13.03;100.00;102330.09;7396301;19;20502;-55
2021/09/02 00:46:01;;;;;;;30.03;14.43;;;;;;;12.94;100.00;102324.41;7401968;19;20443;-58
2021/09/02 00:48:30;;;;;;;31.73;15.27;;;;;;;12.87;100.00;102324.88;7398676;19;20675;-58
2021/09/02 00:51:00;;;;;;;29.97;14.07;;;;;;;12.89;100.00;102323.25;7402404;19;20456;-58
2021/09/02 00:53:29;;;;;;;26.33;14.47;;;;;;;12.94;100.00;102324.41;7394299;19;20494;-56
2021/09/02 00:55:59;;;;;;;32.90;15.10;;;;;;;13.07;100.00;102324.31;7401655;19;20396;-58
2021/09/02 00:58:31;;;;;;;28.67;14.90;;;;;;;13.03;100.00;102318.88;7398425;19;20421;-59
2021/09/02 01:01:01;;;;;;;34.17;14.87;;;;;;;13.00;100.00;102314.41;7401952;19;20388;-59
2021/09/02 01:03:30;;;;;;;24.73;13.77;;;;;;;12.82;100.00;102309.06;7396223;19;20447;-55
2021/09/02 01:06:00;;;;;;;33.57;14.37;;;;;;;12.79;100.00;102304.63;7401526;19;20400;-57
2021/09/02 01:08:29;;;;;;;31.73;14.80;;;;;;;12.79;100.00;102306.28;7398091;19;20429;-53
2021/09/02 01:10:59;;;;;;;78.20;41.43;;;;;;;12.86;100.00;102310.16;7401516;19;20388;-55
2021/09/02 01:13:31;;;;;;;41.60;20.00;;;;;;;12.87;100.00;102307.63;7390814;19;20953;-59
2021/09/02 01:16:01;;;;;;;34.27;15.70;;;;;;;12.88;100.00;102308.53;7399997;19;20471;-59
2021/09/02 01:18:30;;;;;;;31.50;14.80;;;;;;;12.92;100.00;102315.69;7388784;19;20495;-56
2021/09/02 01:21:00;;;;;;;38.13;16.10;;;;;;;12.96;100.00;102307.25;7401303;19;20451;-52
2021/09/02 01:23:36;;;;;;;37.10;16.17;;;;;;;12.90;100.00;102306.91;7392278;19;20507;-59
2021/09/02 01:26:16;;;;;;;30.57;14.70;;;;;;;12.86;100.00;102298.06;7400795;19;20387;-57
2021/09/02 01:28:45;;;;;;;23.13;13.43;;;;;;;12.71;100.00;102298.06;7400242;19;20439;-59
2021/09/02 01:31:15;;;;;;;27.80;13.10;;;;;;;12.60;100.00;102307.81;7393893;19;20455;-57
2021/09/02 01:33:46;;;;;;;31.13;14.53;;;;;;;12.64;100.00;102306.31;7399430;19;20408;-57
2021/09/02 01:36:15;;;;;;;31.13;14.90;;;;;;;12.62;100.00;102305.34;7394062;19;20451;-56
2021/09/02 01:38:48;;;;;;;26.30;14.00;;;;;;;12.66;100.00;102309.84;7400137;19;20432;-56
2021/09/02 01:41:17;;;;;;;33.87;15.77;;;;;;;12.65;100.00;102311.56;7393878;19;20443;-58
2021/09/02 01:43:47;;;;;;;32.90;16.10;;;;;;;12.68;100.00;102316.03;7398950;19;20384;-55
2021/09/02 01:46:16;;;;;;;34.33;15.47;;;;;;;12.68;100.00;102311.75;7396745;19;20444;-57
2021/09/02 01:48:46;;;;;;;33.27;14.60;;;;;;;12.75;100.00;102314.69;7399893;19;20395;-56
2021/09/02 01:51:15;;;;;;;34.33;16.00;;;;;;;12.82;100.00;102309.94;7392755;19;20447;-57
2021/09/02 01:53:47;;;;;;;41.00;15.93;;;;;;;12.96;100.00;102318.53;7398835;19;20380;-56
2021/09/02 01:56:17;;;;;;;32.40;15.93;;;;;;;12.99;100.00;102312.63;7396621;19;20392;-54
2021/09/02 01:58:46;;;;;;;36.87;15.90;;;;;;;12.88;100.00;102313.72;7399732;19;20406;-53
2021/09/02 02:01:16;;;;;;;31.10;16.07;;;;;;;12.88;100.00;102311.13;7396579;19;20874;-56
2021/09/02 02:03:45;;;;;;;30.40;13.83;;;;;;;12.77;100.00;102303.63;7398695;19;20394;-59
2021/09/02 02:06:15;;;;;;;33.80;14.87;;;;;;;12.80;100.00;102310.66;7396072;19;20471;-58
2021/09/02 02:08:44;;;;;;;31.97;14.23;;;;;;;13.03;100.00;102314.56;7399176;19;20472;-57
2021/09/02 02:11:16;;;;;;;28.97;15.03;;;;;;;13.01;100.00;102305.81;7395910;19;20387;-53
2021/09/02 02:13:46;;;;;;;38.67;15.67;;;;;;;12.90;100.00;102307.81;7397950;19;20745;-55
2021/09/02 02:16:15;;;;;;;32.23;14.83;;;;;;;12.68;100.00;102306.56;7395738;19;20850;-56
2021/09/02 02:18:45;;;;;;;33.77;14.83;;;;;;;12.65;100.00;102305.50;7403586;19;20392;-55
2021/09/02 02:21:14;;;;;;;30.93;14.97;;;;;;;12.64;100.00;102303.72;7395362;19;20463;-56
2021/09/02 02:23:44;;;;;;;32.73;14.93;;;;;;;12.69;100.00;102308.38;7398230;19;20468;-53
2021/09/02 02:26:13;;;;;;;34.83;15.13;;;;;;;12.85;100.00;102305.75;7394322;19;20466;-57
2021/09/02 02:28:45;;;;;;;34.63;14.80;;;;;;;12.72;100.00;102301.56;7396157;19;20391;-56
2021/09/02 02:31:15;;;;;;;35.20;15.40;;;;;;;12.66;100.00;102302.09;7395679;19;20380;-57
2021/09/02 02:33:44;;;;;;;36.43;18.20;;;;;;;12.69;100.00;102307.47;7398720;19;20403;-57
2021/09/02 02:36:14;;;;;;;35.80;14.57;;;;;;;12.64;100.00;102314.97;7384234;19;20392;-58
2021/09/02 02:38:43;;;;;;;28.80;14.00;;;;;;;12.62;100.00;102306.19;7398418;19;20402;-53
2021/09/02 02:41:13;;;;;;;37.00;16.10;;;;;;;12.58;100.00;102299.09;7395179;19;20447;-57
2021/09/02 02:43:45;;;;;;;34.00;14.57;;;;;;;12.55;100.00;102307.56;7397940;19;20381;-56
2021/09/02 02:46:14;;;;;;;31.97;14.43;;;;;;;12.58;100.00;102308.53;7390779;19;20379;-55
2021/09/02 02:48:44;;;;;;;31.60;14.83;;;;;;;12.62;100.00;102310.50;7397571;19;20405;-54
2021/09/02 02:51:13;;;;;;;33.67;14.60;;;;;;;12.71;100.00;102308.44;7391739;19;20853;-56
2021/09/02 02:53:43;;;;;;;22.90;13.20;;;;;;;12.67;100.00;102303.91;7398080;19;20404;-55
2021/09/02 02:56:12;;;;;;;30.17;13.80;;;;;;;12.68;100.00;102305.69;7391460;19;20394;-56
2021/09/02 02:58:47;;;;;;;28.23;14.90;;;;;;;12.74;100.00;102302.53;7398019;19;20403;-58
2021/09/02 03:01:17;;;;;;;33.10;14.07;;;;;;;12.78;100.00;102302.81;7394829;19;20446;-57
2021/09/02 03:03:47;;;;;;;27.87;13.37;;;;;;;12.81;100.00;102307.28;7397574;19;20376;-58
2021/09/02 03:06:16;;;;;;;33.43;13.90;;;;;;;12.80;100.00;102301.22;7393575;19;20455;-53
2021/09/02 03:08:46;;;;;;;35.13;14.67;;;;;;;12.86;100.00;102300.66;7397047;19;20380;-56
2021/09/02 03:11:15;;;;;;;27.70;13.27;;;;;;;12.88;100.00;102299.06;7394613;19;20467;-55
2021/09/02 03:13:47;;;;;;;34.40;14.73;;;;;;;12.88;100.00;102298.16;7397560;19;20463;-58
2021/09/02 03:16:17;;;;;;;28.47;13.90;;;;;;;12.93;100.00;102299.31;7393055;19;20384;-54
2021/09/02 03:18:46;;;;;;;26.07;13.30;;;;;;;13.01;100.00;102295.47;7397223;19;20838;-54
2021/09/02 03:21:16;;;;;;;34.47;13.43;;;;;;;13.03;100.00;102304.19;7394235;19;20397;-58
2021/09/02 03:23:45;;;;;;;28.97;13.97;;;;;;;13.03;100.00;102301.59;7397140;19;20386;-58
2021/09/02 03:26:15;;;;;;;33.60;15.97;;;;;;;13.14;100.00;102301.31;7392263;19;20388;-58
2021/09/02 03:28:47;;;;;;;29.43;14.30;;;;;;;13.18;100.00;102303.28;7397357;19;20465;-59
2021/09/02 03:31:16;;;;;;;27.37;13.30;;;;;;;13.16;100.00;102297.13;7393738;19;20451;-56
2021/09/02 03:33:46;;;;;;;30.73;13.00;;;;;;;13.14;100.00;102296.16;7397236;19;20412;-57
2021/09/02 03:36:16;;;;;;;25.43;13.10;;;;;;;13.12;100.00;102295.19;7393498;19;20398;-57
2021/09/02 03:38:45;;;;;;;29.53;15.47;;;;;;;13.14;100.00;102301.31;7400151;19;20386;-56
2021/09/02 03:41:14;;;;;;;23.23;13.20;;;;;;;13.17;100.00;102299.78;7397577;19;20463;-55
2021/09/02 03:43:47;;;;;;;27.93;13.57;;;;;;;13.13;100.00;102299.53;7402297;19;20391;-58
2021/09/02 03:46:16;;;;;;;25.10;12.80;;;;;;;13.25;100.00;102302.81;7397267;19;20447;-58
2021/09/02 03:48:46;;;;;;;33.10;13.43;;;;;;;13.29;100.00;102302.19;7404172;19;20459;-57
2021/09/02 03:51:15;;;;;;;23.67;12.70;;;;;;;13.63;100.00;102303.16;7397371;19;20463;-58
2021/09/02 03:53:45;;;;;;;23.70;12.40;;;;;;;13.52;100.00;102293.94;7404165;19;20464;-58
2021/09/02 03:56:14;;;;;;;30.33;14.20;;;;;;;13.60;100.00;102293.50;7397122;19;20455;-57
2021/09/02 03:58:46;;;;;;;25.93;11.83;;;;;;;13.49;100.00;102305.03;7403581;19;20398;-55
2021/09/02 04:01:16;;;;;;;31.83;14.27;;;;;;;13.42;100.00;102295.06;7399417;19;20400;-57
2021/09/02 04:03:45;;;;;;;27.00;14.23;;;;;;;13.55;100.00;102291.47;7403565;19;20408;-58
2021/09/02 04:06:15;;;;;;;26.47;15.10;;;;;;;13.64;100.00;102297.16;7394557;19;21221;-55
2021/09/02 04:08:44;;;;;;;27.90;13.60;;;;;;;13.54;100.00;102297.47;7403431;19;20384;-58
2021/09/02 04:11:14;;;;;;;29.73;15.10;;;;;;;13.48;100.00;102295.44;7396151;19;20394;-57
2021/09/02 04:13:46;;;;;;;30.50;13.00;;;;;;;13.50;100.00;102305.06;7403193;19;20467;-57
2021/09/02 04:16:16;;;;;;;23.33;12.47;;;;;;;13.53;100.00;102303.47;7395805;19;20384;-56
2021/09/02 04:18:45;;;;;;;38.37;18.83;;;;;;;13.69;100.00;102312.97;7401907;19;20391;-58
2021/09/02 04:21:15;;;;;;;29.43;12.70;;;;;;;13.71;100.00;102307.06;7396795;19;20413;-58
2021/09/02 04:23:48;;;;;;;27.80;13.63;;;;;;;13.67;100.00;102304.19;7403022;19;20443;-56
2021/09/02 04:26:19;;;;;;;29.03;12.40;;;;;;;13.54;100.00;102295.75;7393843;19;20388;-58
2021/09/02 04:28:51;;;;;;;42.43;16.00;;;;;;;13.57;100.00;102293.34;7402860;19;20404;-56
2021/09/02 04:31:21;;;;;;;36.73;20.13;;;;;;;13.57;100.00;102300.22;7396395;19;20379;-56
2021/09/02 04:33:51;;;;;;;30.70;13.53;;;;;;;13.56;100.00;102299.34;7403591;19;20814;-57
2021/09/02 04:36:20;;;;;;;38.87;18.27;;;;;;;13.55;100.00;102300.16;7396016;19;20909;-55
2021/09/02 04:38:50;;;;;;;28.00;13.60;;;;;;;13.54;100.00;102298.34;7401583;19;20463;-56
2021/09/02 04:41:20;;;;;;;33.90;17.87;;;;;;;13.54;100.00;102295.75;7395736;19;20387;-56
2021/09/02 04:43:54;;;;;;;30.03;14.93;;;;;;;13.56;100.00;102299.34;7402740;19;20392;-57
2021/09/02 04:46:24;;;;;;;30.80;16.40;;;;;;;13.56;100.00;102306.22;7393606;19;20394;-58
2021/09/02 04:48:54;;;;;;;34.37;12.57;;;;;;;13.57;100.00;102308.91;7402512;19;20424;-54
2021/09/02 04:51:23;;;;;;;32.37;12.93;;;;;;;13.66;100.00;102307.59;7393407;19;20459;-54
2021/09/02 04:53:53;;;;;;;28.30;11.80;;;;;;;13.55;100.00;102312.22;7402283;19;20455;-57
2021/09/02 04:56:22;;;;;;;27.43;12.73;;;;;;;13.47;100.00;102311.81;7394633;19;20737;-56
2021/09/02 04:58:54;;;;;;;30.87;15.23;;;;;;;13.53;100.00;102306.94;7400240;19;20475;-56
2021/09/02 05:01:24;;;;;;;34.33;17.90;;;;;;;13.69;100.00;102307.78;7395401;19;20461;-50
2021/09/02 05:03:54;;;;;;;23.03;12.60;;;;;;;13.66;100.00;102307.59;7402185;19;20417;-57
2021/09/02 05:06:23;;;;;;;39.90;25.00;;;;;;;13.90;100.00;102310.66;7391525;19;20464;-55
2021/09/02 05:08:53;;;;;;;25.63;11.93;;;;;;;14.05;100.00;102310.53;7401487;19;20414;-55
2021/09/02 05:11:22;;;;;;;37.23;12.13;;;;;;;13.98;100.00;102311.94;7394629;19;20388;-58
2021/09/02 05:13:54;;;;;;;25.20;11.90;;;;;;;14.01;100.00;102306.00;7401463;19;20448;-55
2021/09/02 05:16:24;;;;;;;23.27;10.97;;;;;;;13.91;100.00;102310.69;7392612;19;20391;-59
2021/09/02 05:18:53;;;;;;;22.13;10.67;;;;;;;13.88;100.00;102310.56;7401402;19;20841;-55
2021/09/02 05:21:23;;;;;;;27.97;10.83;;;;;;;13.86;100.00;102313.88;7394199;19;20412;-52
2021/09/02 05:23:52;;;;;;;25.10;11.80;;;;;;;13.91;100.00;102315.88;7401400;19;20400;-56
2021/09/02 05:26:22;;;;;;;34.17;10.97;;;;;;;13.95;100.00;102311.75;7393096;19;20468;-56
2021/09/02 05:28:54;;;;;;;31.70;11.90;;;;;;;13.91;100.00;102312.41;7400873;19;20714;-57
2021/09/02 05:31:24;;;;;;;23.03;11.67;;;;;;;14.01;100.00;102304.28;7394083;19;20751;-58
2021/09/02 05:33:53;;;;;;;22.97;10.97;;;;;;;13.91;100.00;102310.69;7400884;19;20394;-56
2021/09/02 05:36:23;;;;;;;23.60;11.30;;;;;;;13.89;100.00;102307.16;7391721;19;20425;-55
2021/09/02 05:38:52;;;;;;;27.10;11.20;;;;;;;14.01;100.00;102306.00;7400386;19;20452;-56
2021/09/02 05:41:22;;;;;;;26.37;10.97;;;;;;;14.14;100.00;102313.63;7393732;19;20842;-58
2021/09/02 05:43:51;;;;;;;29.30;12.00;;;;;;;14.23;100.00;102300.22;7400344;19;20398;-56
2021/09/02 05:46:23;;;;;;;24.87;12.90;;;;;;;14.21;100.00;102299.28;7392039;19;20395;-56
2021/09/02 05:48:53;;;;;;;24.67;12.13;;;;;;;14.42;100.00;102312.44;7401035;19;20387;-58
2021/09/02 05:51:22;;;;;;;29.50;11.87;;;;;;;14.35;100.00;102309.47;7393470;19;20380;-57
2021/09/02 05:53:52;;;;;;;27.50;12.13;;;;;;;14.36;100.00;102304.31;7399253;19;20392;-56
2021/09/02 05:56:21;;;;;;;27.80;11.10;;;;;;;14.54;100.00;102306.06;7394170;19;20394;-57
2021/09/02 05:58:51;;;;;;;27.00;13.50;;;;;;;14.40;100.00;102311.47;7399794;19;20399;-57
2021/09/02 06:01:23;;;;;;;24.07;11.87;;;;;;;14.29;100.00;102307.44;7392548;19;20452;-53
2021/09/02 06:03:53;;;;;;;24.20;10.80;;;;;;;14.29;100.00;102312.63;7400606;19;20636;-58
2021/09/02 06:06:22;;;;;;;35.70;12.00;;;;;;;14.48;100.00;102313.56;7391965;19;20455;-58
2021/09/02 06:08:52;;;;;;;29.77;12.83;;;;;;;14.35;100.00;102318.13;7400214;19;20388;-53
2021/09/02 06:11:21;;;;;;;23.00;11.13;;;;;;;14.50;100.00;102312.81;7391083;19;20715;-58
2021/09/02 06:13:51;;;;;;;26.53;12.07;;;;;;;14.58;100.00;102326.19;7399404;19;20467;-58
2021/09/02 06:16:23;;;;;;;27.83;12.97;;;;;;;14.48;100.00;102321.34;7392668;19;20465;-57
2021/09/02 06:18:53;;;;;;;34.37;18.87;;;;;;;14.58;100.00;102321.00;7400128;19;20398;-57
2021/09/02 06:21:22;;;;;;;29.33;16.27;;;;;;;14.55;100.00;102320.84;7392087;19;20459;-59
2021/09/02 06:23:52;;;;;;;47.07;22.13;;;;;;;14.70;100.00;102312.91;7403586;19;20410;-56
2021/09/02 06:26:21;;;;;;;75.23;41.27;;;;;;;14.69;100.00;102318.94;7391558;19;20444;-55
2021/09/02 06:28:51;;;;;;;30.93;14.47;;;;;;;14.90;100.00;102313.03;7398858;19;20392;-56
2021/09/02 06:31:24;;;;;;;30.70;13.37;;;;;;;14.61;100.00;102320.28;7390745;19;20380;-58
2021/09/02 06:33:53;;;;;;;55.90;30.30;;;;;;;14.75;100.00;102323.56;7399235;19;20388;-56
2021/09/02 06:36:23;;;;;;;27.03;12.50;;;;;;;14.72;100.00;102319.97;7392712;19;20472;-59
2021/09/02 06:38:52;;;;;;;27.70;12.60;;;;;;;14.49;100.00;102316.22;7399342;19;20922;-58
2021/09/02 06:41:22;;;;;;;35.47;18.47;;;;;;;14.88;100.00;102327.66;7395273;19;20413;-59
2021/09/02 06:43:51;;;;;;;30.43;16.43;;;;;;;15.09;100.00;102325.22;7398594;19;20386;-58
2021/09/02 06:46:24;;;;;;;31.57;12.50;;;;;;;14.68;100.00;102312.84;7394164;19;20394;-56
2021/09/02 06:48:53;;;;;;;27.50;12.80;;;;;;;14.56;100.00;102322.66;7399396;19;20387;-55
2021/09/02 06:51:23;;;;;;;34.10;16.97;;;;;;;14.79;100.00;102330.72;7393127;19;20484;-52
2021/09/02 06:53:52;;;;;;;29.47;13.90;;;;;;;15.33;100.00;102330.69;7398392;19;20396;-56
2021/09/02 06:56:22;;;;;;;29.50;14.17;;;;;;;15.46;100.00;102321.78;7394832;19;20455;-57
2021/09/02 06:58:51;;;;;;;24.60;12.20;;;;;;;15.51;100.00;102325.47;7398254;19;20471;-57
2021/09/02 07:01:23;;;;;;;30.07;13.13;;;;;;;15.47;100.00;102318.34;7394712;19;20459;-57
2021/09/02 07:03:53;;;;;;;30.70;11.63;;;;;;;15.27;100.00;102324.34;7398294;19;20391;-56
2021/09/02 07:06:23;;;;;;;33.93;19.23;;;;;;;15.52;100.00;102322.06;7393397;19;20388;-56
2021/09/02 07:08:52;;;;;;;26.63;11.53;;;;;;;15.61;100.00;102325.91;7396857;19;20412;-56
2021/09/02 07:11:22;;;;;;;21.07;11.70;;;;;;;15.47;100.00;102335.66;7393944;19;20386;-54
2021/09/02 07:13:51;;;;;;;26.10;11.83;;;;;;;15.55;100.00;102326.50;7401443;19;20451;-56
2021/09/02 07:16:23;;;;;;;103.57;73.23;;;;;;;15.73;100.00;102330.75;7401614;19;20468;-58
2021/09/02 07:18:53;;;;;;;22.07;10.73;;;;;;;15.55;100.00;102325.59;7406226;19;20399;-58
2021/09/02 07:21:23;;;;;;;29.60;13.53;;;;;;;15.50;100.00;102328.00;7401494;19;20392;-56
2021/09/02 07:23:52;;;;;;;28.87;12.07;;;;;;;15.28;100.00;102336.50;7405111;19;20411;-58
2021/09/02 07:26:22;;;;;;;28.63;12.90;;;;;;;15.45;100.00;102340.81;7398918;19;20459;-56
2021/09/02 07:28:51;;;;;;;21.83;12.30;;;;;;;15.60;100.00;102342.31;7404829;19;20472;-53
2021/09/02 07:31:24;;;;;;;26.63;12.30;;;;;;;15.74;100.00;102346.44;7401086;19;20380;-57
2021/09/02 07:33:53;;;;;;;21.07;12.20;;;;;;;15.39;100.00;102346.59;7405073;19;20412;-55
2021/09/02 07:36:23;;;;;;;21.73;11.50;;;;;;;15.39;100.00;102351.78;7400656;19;20455;-57
2021/09/02 07:39:11;;;;;;;27.33;12.97;;;;;;;15.55;100.00;102351.63;7404339;19;20850;-54
2021/09/02 07:41:40;;;;;;;195.77;116.00;;;;;;;15.73;100.00;102351.56;7400478;19;20415;-57
2021/09/02 07:44:10;;;;;;;27.30;13.33;;;;;;;15.76;100.00;102346.53;7404710;19;20460;-57
2021/09/02 07:46:42;;;;;;;25.60;13.47;;;;;;;15.68;100.00;102348.75;7398350;19;20478;-55
2021/09/02 07:49:12;;;;;;;24.00;11.17;;;;;;;15.49;100.00;102353.09;7404318;19;20865;-54
2021/09/02 07:51:42;;;;;;;24.70;11.77;;;;;;;15.68;100.00;102363.50;7396757;19;20482;-58
2021/09/02 07:54:12;;;;;;;22.43;11.67;;;;;;;15.78;100.00;102360.47;7404489;19;20838;-57
2021/09/02 07:56:41;;;;;;;35.17;11.90;;;;;;;15.78;100.00;102356.19;7396265;19;20895;-58
2021/09/02 07:59:11;;;;;;;22.63;12.00;;;;;;;15.71;100.00;102356.72;7404198;19;20399;-54
2021/09/02 08:01:43;;;;;;;23.97;10.70;;;;;;;15.67;100.00;102352.19;7396188;19;20448;-58
2021/09/02 08:04:13;;;;;;;25.30;13.50;;;;;;;15.70;100.00;102347.16;7403155;19;20413;-56
2021/09/02 08:06:42;;;;;;;21.87;11.03;;;;;;;15.71;100.00;102348.91;7396600;19;20411;-57
2021/09/02 08:09:12;;;;;;;19.37;11.20;;;;;;;15.96;100.00;102342.25;7403615;19;20460;-55
2021/09/02 08:11:41;;;;;;;19.63;10.60;;;;;;;15.87;100.00;102344.41;7396238;19;20976;-57
2021/09/02 08:14:11;;;;;;;17.47;9.93;;;;;;;15.77;100.00;102353.50;7403644;19;20391;-57
2021/09/02 08:16:43;;;;;;;21.30;10.60;;;;;;;15.82;100.00;102352.00;7397154;19;20495;-57
2021/09/02 08:19:12;;;;;;;19.13;10.07;;;;;;;15.84;100.00;102346.88;7402140;19;20670;-55
2021/09/02 08:21:43;;;;;;;21.00;9.73;;;;;;;15.85;100.00;102346.06;7395605;19;20471;-54
2021/09/02 08:24:13;;;;;;;19.73;10.30;;;;;;;15.71;100.00;102346.31;7403129;19;20403;-56
2021/09/02 08:26:42;;;;;;;21.67;9.43;;;;;;;15.84;100.00;102352.09;7393997;19;20901;-57
2021/09/02 08:29:12;;;;;;;22.43;9.43;;;;;;;15.88;100.00;102348.78;7402777;19;20404;-58
2021/09/02 08:31:44;;;;;;;24.73;10.03;;;;;;;15.82;100.00;102345.91;7394714;19;20490;-57
2021/09/02 08:34:14;;;;;;;16.47;8.90;;;;;;;15.90;100.00;102341.94;7403172;19;20461;-57
2021/09/02 08:36:44;;;;;;;24.13;9.23;;;;;;;15.76;100.00;102341.31;7397144;19;20483;-57
2021/09/02 08:39:13;;;;;;;18.63;9.43;;;;;;;15.75;100.00;102340.41;7402230;19;20392;-57
2021/09/02 08:41:44;;;;;;;14.80;7.73;;;;;;;15.51;100.00;102341.09;7395256;19;20760;-58
2021/09/02 08:44:14;;;;;;;20.53;7.40;;;;;;;15.56;100.00;102330.88;7402926;19;20453;-58
2021/09/02 08:46:46;;;;;;;17.50;7.77;;;;;;;15.73;100.00;102330.75;7394863;19;20416;-57
2021/09/02 08:49:20;;;;;;;19.63;7.63;;;;;;;15.78;100.00;102329.25;7402640;19;20392;-55
2021/09/02 08:51:50;;;;;;;13.87;6.47;;;;;;;15.73;100.00;102321.25;7394893;19;20427;-54
2021/09/02 08:54:20;;;;;;;12.57;6.03;;;;;;;15.69;100.00;102319.31;7400788;19;20711;-57
2021/09/02 08:56:49;;;;;;;14.10;6.87;;;;;;;15.85;100.00;102320.03;7394462;19;20419;-57
2021/09/02 08:59:19;;;;;;;18.73;7.10;;;;;;;15.85;100.00;102317.44;7402029;19;20471;-56
2021/09/02 09:01:52;;;;;;;17.73;7.07;;;;;;;15.95;100.00;102321.38;7393905;19;20749;-56
2021/09/02 09:04:23;;;;;;;16.77;7.53;;;;;;;16.05;100.00;102318.34;7402226;19;20392;-55
2021/09/02 09:06:52;;;;;;;17.07;7.10;;;;;;;16.08;100.00;102317.56;7394282;19;20419;-57
2021/09/02 09:09:22;;;;;;;15.33;6.93;;;;;;;15.98;100.00;102319.78;7401852;19;20389;-53
2021/09/02 09:11:54;;;;;;;17.80;7.07;;;;;;;15.96;100.00;102324.03;7393265;19;20415;-57
2021/09/02 09:14:28;;;;;;;18.33;7.63;;;;;;;15.98;100.00;102332.78;7401393;19;20472;-55
2021/09/02 09:17:01;;;;;;;16.67;7.47;;;;;;;16.04;100.00;102332.16;7393678;19;20714;-58
2021/09/02 09:19:39;;;;;;;17.17;6.60;;;;;;;15.99;100.00;102321.56;7402500;19;20472;-58
2021/09/02 09:22:10;;;;;;;22.20;7.53;;;;;;;15.96;100.00;102329.25;7393436;19;20432;-55
2021/09/02 09:24:44;;;;;;;13.20;7.07;;;;;;;16.09;100.00;102338.47;7401624;19;20398;-57
2021/09/02 09:27:14;;;;;;;15.10;5.83;;;;;;;16.03;100.00;102341.72;7393053;19;20435;-54
2021/09/02 09:29:44;;;;;;;20.00;11.07;;;;;;;16.20;100.00;102344.13;7400245;19;20448;-56
2021/09/02 09:32:20;;;;;;;19.77;8.30;;;;;;;16.28;100.00;102342.78;7393003;19;20423;-57
2021/09/02 09:34:51;;;;;;;12.20;7.03;;;;;;;16.16;100.00;102343.13;7401200;19;20887;-56
2021/09/02 09:37:22;;;;;;;15.10;6.77;;;;;;;16.16;100.00;102347.47;7395122;19;20438;-54
2021/09/02 09:39:51;;;;;;;19.97;11.10;;;;;;;16.23;100.00;102352.09;7400937;19;20388;-55
2021/09/02 09:42:21;;;;;;;26.53;12.20;;;;;;;16.17;100.00;102357.03;7395897;19;20454;-56
2021/09/02 09:44:51;;;;;;;21.10;11.00;;;;;;;16.17;100.00;102357.94;7400773;19;20459;-58
2021/09/02 09:47:23;;;;;;;16.83;7.63;;;;;;;16.15;100.00;102351.75;7395584;19;20416;-58
2021/09/02 09:49:55;;;;;;;24.33;10.90;;;;;;;16.27;100.00;102355.72;7398975;19;20443;-56
2021/09/02 09:52:29;;;;;;;25.00;10.50;;;;;;;16.27;100.00;102361.84;7395758;19;20415;-56
2021/09/02 09:55:09;;;;;;;22.00;10.37;;;;;;;16.13;100.00;102368.13;7400626;19;20404;-58
2021/09/02 09:57:41;;;;;;;16.50;7.90;;;;;;;15.95;100.00;102370.81;7396115;19;20431;-58
2021/09/02 10:00:14;;;;;;;18.70;9.30;;;;;;;15.97;100.00;102362.25;7400345;19;20714;-57
2021/09/02 10:02:47;;;;;;;22.57;13.33;;;;;;;16.02;100.00;102365.06;7395222;19;20415;-57
2021/09/02 10:05:18;;;;;;;17.93;8.60;;;;;;;15.85;100.00;102372.06;7400026;19;20392;-54
2021/09/02 10:07:49;;;;;;;16.40;8.70;;;;;;;15.95;100.00;102374.31;7394047;19;20502;-58
2021/09/02 10:10:19;;;;;;;23.63;8.60;;;;;;;16.00;100.00;102370.19;7400164;19;20388;-57
2021/09/02 10:12:51;;;;;;;20.27;9.20;;;;;;;15.94;100.00;102367.31;7394530;19;20969;-57
2021/09/02 10:15:22;;;;;;;14.97;7.47;;;;;;;15.89;100.00;102374.88;7399410;19;20392;-54
2021/09/02 10:17:54;;;;;;;26.20;11.77;;;;;;;16.03;100.00;102367.75;7395874;19;20488;-55
2021/09/02 10:20:25;;;;;;;16.33;8.30;;;;;;;15.99;100.00;102371.00;7399746;19;20452;-60
2021/09/02 10:22:58;;;;;;;23.53;13.83;;;;;;;16.16;100.00;102374.38;7395619;19;20518;-57
2021/09/02 10:25:40;;;;;;;23.47;13.00;;;;;;;16.31;100.00;102373.28;7397807;19;20388;-58
2021/09/02 10:28:11;;;;;;;18.93;8.60;;;;;;;16.18;100.00;102367.53;7395222;19;20436;-56
2021/09/02 10:30:45;;;;;;;25.20;13.30;;;;;;;16.12;100.00;102358.53;7399485;19;20391;-58
2021/09/02 10:33:40;;;;;;;20.87;12.10;;;;;;;16.14;100.00;102367.31;7393989;19;20464;-55
2021/09/02 10:36:40;;;;;;;22.43;11.13;;;;;;;16.26;100.00;102373.06;7394626;19;20448;-57
2021/09/02 10:39:10;;;;;;;18.30;9.30;;;;;;;16.27;100.00;102371.34;7398976;19;20455;-56
2021/09/02 10:41:47;;;;;;;27.90;10.47;;;;;;;16.43;100.00;102378.13;7394071;19;20514;-57
2021/09/02 10:44:19;;;;;;;19.50;10.13;;;;;;;16.43;100.00;102378.13;7398212;19;20383;-58
2021/09/02 10:46:50;;;;;;;15.47;9.00;;;;;;;16.47;100.00;102380.03;7394433;19;20420;-57
2021/09/02 10:49:25;;;;;;;23.93;12.60;;;;;;;16.59;100.00;102370.16;7401734;19;20392;-55
2021/09/02 10:51:57;;;;;;;23.10;10.27;;;;;;;16.64;100.00;102379.84;7401909;19;20417;-56
2021/09/02 10:54:31;;;;;;;18.13;10.27;;;;;;;16.66;100.00;102375.63;7406517;19;20614;-56
2021/09/02 10:57:06;;;;;;;24.80;9.60;;;;;;;16.48;100.00;102376.63;7401795;19;20511;-56
2021/09/02 10:59:43;;;;;;;16.63;10.70;;;;;;;16.39;100.00;102370.97;7406109;19;20393;-57
2021/09/02 11:02:34;;;;;;;19.13;10.57;;;;;;;16.49;100.00;102380.09;7399884;19;20891;-58
2021/09/02 11:05:08;;;;;;;17.23;9.97;;;;;;;16.48;100.00;102368.78;7405851;19;20387;-57
2021/09/02 11:07:39;;;;;;;16.47;9.23;;;;;;;16.46;100.00;102375.66;7401445;19;20490;-57
2021/09/02 11:10:14;;;;;;;23.47;12.17;;;;;;;16.30;100.00;102369.78;7403089;19;20386;-57
2021/09/02 11:12:44;;;;;;;18.83;10.43;;;;;;;16.33;100.00;102377.75;7400057;19;20431;-57
2021/09/02 11:15:22;;;;;;;22.53;12.27;;;;;;;16.37;100.00;102372.66;7405511;19;20443;-58
2021/09/02 11:17:53;;;;;;;19.03;9.60;;;;;;;16.39;100.00;102377.09;7401696;19;20490;-55